EmpreSS Horn Blower — WAZ9629 — position and weather

sailwx.info

Track history (hours):
 
Tides and Currents Weather Stations Pressure Air Temp Water Temp Dewpoint Dewpoint Depression Visibility Wind Speed Wind Dir Waves Ship Positions

EmpreSS Horn Blower

Owner: HORNBLOWER DINING YACHTS, SAN FRANCISCO, CA. More information available from US FCC via Universal Licensing System and Coast Guard Vessel Documentation Center.

Last reported at 2018-Jun-22 05:37 UTC. Time now 2018-Jun-23 11:44 UTC.
Position N 37°52' W 122°19'.

Length 26 m; draft 2 m.

Type: Passenger vessel. MMSI: 366988170.

Date/timePositionNaut miles runAvg speedWind from/ knotsBaromVisibWave heightAir tempDewpointWater temp
2018-Jun-22 05:37N 37°52' W 122°19'0 0.0
2018-Jun-22 05:30N 37°52' W 122°19'3 6.1
2018-Jun-22 05:00N 37°51' W 122°22'3 5.9
2018-Jun-22 04:30N 37°48' W 122°24'1 2.4
2018-Jun-22 04:00N 37°49' W 122°25'2 4.7
2018-Jun-22 03:30N 37°49' W 122°27'1 2.8
2018-Jun-22 03:00N 37°49' W 122°26'3 6.0
2018-Jun-22 02:30N 37°47' W 122°23'1 1.8
2018-Jun-22 01:48N 37°48' W 122°24'0 0.0
2018-Jun-22 01:29N 37°48' W 122°24'0 0.8
2018-Jun-22 01:00N 37°48' W 122°24'4 7.1
2018-Jun-22 00:30N 37°51' W 122°21'2 3.5
2018-Jun-21 23:56N 37°52' W 122°19'0 0.0
2018-Jun-21 16:40N 37°52' W 122°19'0 0.0
2018-Jun-21 16:25N 37°52' W 122°19'0 0.0
2018-Jun-21 15:57N 37°52' W 122°19'0 0.1
2018-Jun-21 15:29N 37°52' W 122°19'0 0.0
2018-Jun-21 14:59N 37°52' W 122°19'0 0.0
2018-Jun-21 14:29N 37°52' W 122°19'  
2018-Jun-19 06:48N 37°52' W 122°19'1 2.9
2018-Jun-19 06:30N 37°52' W 122°20'4 7.3
2018-Jun-19 06:00N 37°49' W 122°23'1 2.7
2018-Jun-19 05:30N 37°48' W 122°24'2 4.6
2018-Jun-19 05:00N 37°49' W 122°26'3 5.9
2018-Jun-19 04:30N 37°51' W 122°29'0 0.4
2018-Jun-19 04:00N 37°51' W 122°28'0 0.4
2018-Jun-19 03:28N 37°51' W 122°29'0 0.0
2018-Jun-19 02:59N 37°51' W 122°29'0 0.0
2018-Jun-19 02:30N 37°51' W 122°29'0 0.0
2018-Jun-19 01:57N 37°51' W 122°29'0 0.3
2018-Jun-19 01:31N 37°51' W 122°28'3 6.0
2018-Jun-19 01:00N 37°51' W 122°25'3 5.4
2018-Jun-19 00:26N 37°48' W 122°24'0 0.5
2018-Jun-19 00:00N 37°48' W 122°23'2 4.0
2018-Jun-18 23:30N 37°50' W 122°23'3 7.0
2018-Jun-18 23:00N 37°52' W 122°19'0 0.6
2018-Jun-18 22:30N 37°52' W 122°19'5 0.2
2018-Jun-17 18:14N 37°50' W 122°24'1 4.7
2018-Jun-17 18:00N 37°50' W 122°25'3 6.9
2018-Jun-17 17:30N 37°51' W 122°21'2 3.3
2018-Jun-17 16:54N 37°52' W 122°19'0 0.0
2018-Jun-17 16:19N 37°52' W 122°19'0 0.0
2018-Jun-17 15:57N 37°52' W 122°19'0 0.0
2018-Jun-17 15:30N 37°52' W 122°19'0 0.0
2018-Jun-17 01:07N 37°52' W 122°19'0 0.5
2018-Jun-17 01:00N 37°52' W 122°19'3 6.8
2018-Jun-17 00:30N 37°50' W 122°23'3 4.2
2018-Jun-16 23:53N 37°48' W 122°24'0 0.8
2018-Jun-16 23:30N 37°48' W 122°23'0 0.7
2018-Jun-16 23:01N 37°48' W 122°23'1 2.6
2018-Jun-16 22:30N 37°49' W 122°24'1 2.8
2018-Jun-16 22:00N 37°48' W 122°24'0 0.3
2018-Jun-16 21:30N 37°48' W 122°23'3 5.4
2018-Jun-16 21:00N 37°50' W 122°22'3 5.6
2018-Jun-16 20:30N 37°52' W 122°19'0 0.0
2018-Jun-15 03:54N 37°52' W 122°19'1 1.8
2018-Jun-15 03:30N 37°52' W 122°20'4 8.8
2018-Jun-15 03:00N 37°50' W 122°25'2 4.1
2018-Jun-15 02:30N 37°49' W 122°27'3 6.9
2018-Jun-15 02:00N 37°47' W 122°23'3 6.6
2018-Jun-15 01:30N 37°49' W 122°21'3 6.2
2018-Jun-15 01:00N 37°52' W 122°19'0 0.0
2018-Jun-15 00:28N 37°52' W 122°19'0 0.0
2018-Jun-14 23:59N 37°52' W 122°19'0 0.0
2018-Jun-14 23:29N 37°52' W 122°19'  
Track history (hours):
 
Tides and Currents Weather Stations Pressure Air Temp Water Temp Dewpoint Dewpoint Depression Visibility Wind Speed Wind Dir Waves Ship Positions

EmpreSS Horn Blower

Owner: HORNBLOWER DINING YACHTS, SAN FRANCISCO, CA. More information available from US FCC via Universal Licensing System and Coast Guard Vessel Documentation Center.

Last reported at 2018-Jun-22 05:37 UTC. Time now 2018-Jun-23 11:44 UTC.
Position N 37°52' W 122°19'.

Length 26 m; draft 2 m.

Type: Passenger vessel. MMSI: 366988170.

Date/timePositionNaut miles runAvg speedWind from/ knotsBaromVisibWave heightAir tempDewpointWater temp
2018-Jun-22 05:37N 37°52' W 122°19'0 0.0
2018-Jun-22 05:30N 37°52' W 122°19'3 6.1
2018-Jun-22 05:00N 37°51' W 122°22'3 5.9
2018-Jun-22 04:30N 37°48' W 122°24'1 2.4
2018-Jun-22 04:00N 37°49' W 122°25'2 4.7
2018-Jun-22 03:30N 37°49' W 122°27'1 2.8
2018-Jun-22 03:00N 37°49' W 122°26'3 6.0
2018-Jun-22 02:30N 37°47' W 122°23'1 1.8
2018-Jun-22 01:48N 37°48' W 122°24'0 0.0
2018-Jun-22 01:29N 37°48' W 122°24'0 0.8
2018-Jun-22 01:00N 37°48' W 122°24'4 7.1
2018-Jun-22 00:30N 37°51' W 122°21'2 3.5
2018-Jun-21 23:56N 37°52' W 122°19'0 0.0
2018-Jun-21 16:40N 37°52' W 122°19'0 0.0
2018-Jun-21 16:25N 37°52' W 122°19'0 0.0
2018-Jun-21 15:57N 37°52' W 122°19'0 0.1
2018-Jun-21 15:29N 37°52' W 122°19'0 0.0
2018-Jun-21 14:59N 37°52' W 122°19'0 0.0
2018-Jun-21 14:29N 37°52' W 122°19'  
2018-Jun-19 06:48N 37°52' W 122°19'1 2.9
2018-Jun-19 06:30N 37°52' W 122°20'4 7.3
2018-Jun-19 06:00N 37°49' W 122°23'1 2.7
2018-Jun-19 05:30N 37°48' W 122°24'2 4.6
2018-Jun-19 05:00N 37°49' W 122°26'3 5.9
2018-Jun-19 04:30N 37°51' W 122°29'0 0.4
2018-Jun-19 04:00N 37°51' W 122°28'0 0.4
2018-Jun-19 03:28N 37°51' W 122°29'0 0.0
2018-Jun-19 02:59N 37°51' W 122°29'0 0.0
2018-Jun-19 02:30N 37°51' W 122°29'0 0.0
2018-Jun-19 01:57N 37°51' W 122°29'0 0.3
2018-Jun-19 01:31N 37°51' W 122°28'3 6.0
2018-Jun-19 01:00N 37°51' W 122°25'3 5.4
2018-Jun-19 00:26N 37°48' W 122°24'0 0.5
2018-Jun-19 00:00N 37°48' W 122°23'2 4.0
2018-Jun-18 23:30N 37°50' W 122°23'3 7.0
2018-Jun-18 23:00N 37°52' W 122°19'0 0.6
2018-Jun-18 22:30N 37°52' W 122°19'5 0.2
2018-Jun-17 18:14N 37°50' W 122°24'1 4.7
2018-Jun-17 18:00N 37°50' W 122°25'3 6.9
2018-Jun-17 17:30N 37°51' W 122°21'2 3.3
2018-Jun-17 16:54N 37°52' W 122°19'0 0.0
2018-Jun-17 16:19N 37°52' W 122°19'0 0.0
2018-Jun-17 15:57N 37°52' W 122°19'0 0.0
2018-Jun-17 15:30N 37°52' W 122°19'0 0.0
2018-Jun-17 01:07N 37°52' W 122°19'0 0.5
2018-Jun-17 01:00N 37°52' W 122°19'3 6.8
2018-Jun-17 00:30N 37°50' W 122°23'3 4.2
2018-Jun-16 23:53N 37°48' W 122°24'0 0.8
2018-Jun-16 23:30N 37°48' W 122°23'0 0.7
2018-Jun-16 23:01N 37°48' W 122°23'1 2.6
2018-Jun-16 22:30N 37°49' W 122°24'1 2.8
2018-Jun-16 22:00N 37°48' W 122°24'0 0.3
2018-Jun-16 21:30N 37°48' W 122°23'3 5.4
2018-Jun-16 21:00N 37°50' W 122°22'3 5.6
2018-Jun-16 20:30N 37°52' W 122°19'0 0.0
2018-Jun-15 03:54N 37°52' W 122°19'1 1.8
2018-Jun-15 03:30N 37°52' W 122°20'4 8.8
2018-Jun-15 03:00N 37°50' W 122°25'2 4.1
2018-Jun-15 02:30N 37°49' W 122°27'3 6.9
2018-Jun-15 02:00N 37°47' W 122°23'3 6.6
2018-Jun-15 01:30N 37°49' W 122°21'3 6.2
2018-Jun-15 01:00N 37°52' W 122°19'0 0.0
2018-Jun-15 00:28N 37°52' W 122°19'0 0.0
2018-Jun-14 23:59N 37°52' W 122°19'0 0.0
2018-Jun-14 23:29N 37°52' W 122°19'  

Dump ship's entire track history